»·PEaware :: N184GS KCNO-KSAN

N184GS :: KCNO-KSAN

FLIGHT INFORMATION

Flight Status: Arrived
Operator: Privately registered:
United States
More flights under this callsign
Pilot: Todd T. (13067)
Aircraft: BEECH AIRCRAFT BARON
(BE58)
More flights by this aircraft type
Origin: KCNO Chino
United States
Destination: KSAN San Diego Intl-Lindbergh
United States
More flights between these airports :: More routes between these airports
Route: +PDZ V186 HAILE V66 MZB
File this flight plan on PilotEdge
Remarks: ONTN12
Altitude:
(Current/Filed)
9,000ft
Speed:
(Current/Filed)
0kts
Departed: 03-Dec-17 06:46 PM
Arrived: 03-Dec-17 07:29 PM
Distance/Time
Traveled:
78nm/0:43
Distance/Time
To Go:
Arrived

Flight Plot

Page will automatically refresh every two minutes.


Map Options




Map Legend


Flown Route
Filed Route
Departure Airport
Arrival Airport
Navaid (VOR, NDB)
Fix

Horizontal Profiles

Position Reports

Time Latitude Longitude Heading Altitude Ground
Speed
03-Dec-17 18:27 33.978727 -117.644461 180 630ft 0kts
03-Dec-17 18:28 33.978727 -117.644461 180 630ft 0kts
03-Dec-17 18:29 33.978727 -117.644461 180 630ft 0kts
03-Dec-17 18:30 33.978727 -117.644461 180 630ft 0kts
03-Dec-17 18:31 33.978727 -117.644461 180 630ft 0kts
03-Dec-17 18:32 33.978727 -117.644461 180 630ft 0kts
03-Dec-17 18:33 33.978727 -117.644461 180 630ft 0kts
03-Dec-17 18:34 33.978727 -117.644461 180 630ft 0kts
03-Dec-17 18:35 33.978726 -117.644461 179 630ft 0kts
03-Dec-17 18:36 33.978726 -117.644461 179 630ft 0kts
03-Dec-17 18:37 33.978726 -117.644461 179 630ft 0kts
03-Dec-17 18:38 33.978726 -117.644461 179 630ft 0kts
03-Dec-17 18:39 33.978726 -117.644461 179 630ft 0kts
03-Dec-17 18:40 33.978726 -117.644461 179 630ft 0kts
03-Dec-17 18:41 33.977936 -117.645394 176 627ft 0kts
03-Dec-17 18:42 33.977921 -117.645393 172 627ft 0kts
03-Dec-17 18:43 33.977479 -117.645358 179 626ft 11kts
03-Dec-17 18:44 33.976888 -117.639402 88 630ft 24kts
03-Dec-17 18:45 33.976939 -117.631094 101 639ft 13kts
03-Dec-17 18:46 33.976935 -117.630663 271 639ft 0kts
03-Dec-17 18:47 33.976935 -117.630663 271 639ft 0kts
03-Dec-17 18:48 33.976935 -117.630662 271 639ft 0kts
03-Dec-17 18:49 33.976608 -117.630856 154 638ft 0kts
03-Dec-17 18:50 33.975857 -117.631479 263 635ft 1kts
03-Dec-17 18:51 33.975691 -117.662415 270 1395ft 122kts
03-Dec-17 18:52 33.977064 -117.704527 271 3068ft 135kts
03-Dec-17 18:53 33.969146 -117.743991 196 4733ft 139kts
03-Dec-17 18:54 33.949178 -117.707022 101 6074ft 155kts
03-Dec-17 18:55 33.940417 -117.653908 96 7195ft 165kts
03-Dec-17 18:56 33.933620 -117.597591 96 8191ft 173kts
03-Dec-17 18:57 33.924298 -117.539245 100 8948ft 186kts
03-Dec-17 18:58 33.889407 -117.488962 138 9003ft 210kts
03-Dec-17 18:59 33.849287 -117.443128 137 8822ft 183kts
03-Dec-17 19:00 33.812753 -117.401063 138 8976ft 186kts
03-Dec-17 19:01 33.773154 -117.356383 146 9050ft 201kts
03-Dec-17 19:02 33.730372 -117.338670 169 9048ft 198kts
03-Dec-17 19:03 33.671604 -117.306448 152 9047ft 201kts
03-Dec-17 19:04 33.624738 -117.269814 148 9047ft 202kts
03-Dec-17 19:05 33.578903 -117.230821 147 9048ft 203kts
03-Dec-17 19:06 33.533119 -117.191039 146 9048ft 204kts
03-Dec-17 19:07 33.486680 -117.151874 151 9034ft 205kts
03-Dec-17 19:08 33.438520 -117.115991 151 9059ft 204kts
03-Dec-17 19:09 33.390405 -117.080007 149 9067ft 205kts
03-Dec-17 19:10 33.351369 -117.047475 146 9071ft 205kts
03-Dec-17 19:11 33.296579 -117.002343 148 9086ft 205kts
03-Dec-17 19:12 33.257384 -116.970433 149 9073ft 200kts
03-Dec-17 19:13 33.211271 -116.931919 150 7977ft 201kts
03-Dec-17 19:14 33.165883 -116.895054 146 7127ft 194kts
03-Dec-17 19:15 33.122502 -116.857749 147 7046ft 191kts
03-Dec-17 19:16 33.080045 -116.825021 150 7103ft 181kts
03-Dec-17 19:17 33.038789 -116.791341 147 6986ft 178kts
03-Dec-17 19:18 32.998049 -116.758038 150 6904ft 177kts
03-Dec-17 19:19 32.957772 -116.725041 147 6953ft 175kts
03-Dec-17 19:20 32.916376 -116.693777 160 7021ft 176kts
03-Dec-17 19:21 32.872267 -116.704384 204 6110ft 166kts
03-Dec-17 19:22 32.833241 -116.730328 209 5925ft 155kts
03-Dec-17 19:23 32.795262 -116.753462 206 6024ft 156kts
03-Dec-17 19:24 32.756785 -116.779213 230 6182ft 160kts
03-Dec-17 19:25 32.738680 -116.830374 251 6026ft 174kts
03-Dec-17 19:26 32.721349 -116.880753 251 6020ft 160kts
03-Dec-17 19:27 32.704915 -116.927877 249 5875ft 152kts
03-Dec-17 19:28 32.693826 -116.973364 268 5362ft 146kts
03-Dec-17 19:29 32.688774 -117.020811 261 4378ft 143kts
03-Dec-17 19:30 32.689461 -117.064092 298 2974ft 133kts
03-Dec-17 19:31 32.710673 -117.100852 291 1872ft 129kts
03-Dec-17 19:32 32.721098 -117.138218 286 948ft 110kts
03-Dec-17 19:33 32.728382 -117.168051 283 293ft 81kts
03-Dec-17 19:34 32.732855 -117.186601 291 16ft 18kts

Navigation Log

Ident Type
1. KCNO Airport
2. PDZ Navaid
3. NIKKL Fix
4. WESIN Fix
5. TANNR Fix
6. DEGLE Fix
7. ROBNN Fix
8. HAILE Fix
9. MZB Navaid
10. KSAN Airport